createdAt,value
2022-10-16T00:00:50.830Z,13.81
2022-10-16T00:01:50.783Z,13.86
2022-10-16T00:02:50.833Z,13.85
2022-10-16T00:03:50.760Z,13.85
2022-10-16T00:04:50.806Z,13.89
2022-10-16T00:05:50.754Z,13.85
2022-10-16T00:06:50.736Z,13.89
2022-10-16T00:07:50.795Z,13.90
2022-10-16T00:08:50.694Z,13.87
2022-10-16T00:09:50.763Z,13.83
2022-10-16T00:10:50.703Z,13.85
2022-10-16T00:11:50.785Z,13.87
2022-10-16T00:12:50.707Z,13.92
2022-10-16T00:13:50.714Z,13.90
2022-10-16T00:14:50.712Z,13.87
2022-10-16T00:15:50.655Z,13.83
2022-10-16T00:16:50.667Z,13.83
2022-10-16T00:17:50.650Z,13.83
2022-10-16T00:18:50.631Z,13.83
2022-10-16T00:19:50.639Z,13.86
2022-10-16T00:20:50.663Z,13.81
2022-10-16T00:21:50.631Z,13.83
2022-10-16T00:22:50.596Z,13.79
2022-10-16T00:23:50.626Z,13.77
2022-10-16T00:24:50.597Z,13.75
2022-10-16T00:25:50.593Z,13.71
2022-10-16T00:26:50.595Z,13.67
2022-10-16T00:27:50.602Z,13.72
2022-10-16T00:28:50.642Z,13.68
2022-10-16T00:29:50.620Z,13.70
2022-10-16T00:30:50.548Z,13.68
2022-10-16T00:31:50.592Z,13.62
2022-10-16T00:32:50.600Z,13.53
2022-10-16T00:33:50.564Z,13.59
2022-10-16T00:34:50.547Z,13.50
2022-10-16T00:35:50.515Z,13.62
2022-10-16T00:36:50.531Z,13.54
2022-10-16T00:37:50.525Z,13.56
2022-10-16T00:38:50.522Z,13.67
2022-10-16T00:39:50.485Z,13.62
2022-10-16T00:40:50.533Z,13.56
2022-10-16T00:41:50.497Z,13.60
2022-10-16T00:42:50.477Z,13.49
2022-10-16T00:43:50.486Z,13.39
2022-10-16T00:44:50.463Z,13.38
2022-10-16T00:45:50.455Z,13.41
2022-10-16T00:46:50.450Z,13.42
2022-10-16T00:47:50.428Z,13.42
2022-10-16T00:48:50.458Z,13.35
2022-10-16T00:49:50.509Z,13.38
2022-10-16T00:50:50.408Z,13.37
2022-10-16T00:51:50.387Z,13.35
2022-10-16T00:52:50.390Z,13.37
2022-10-16T00:53:50.378Z,13.30
2022-10-16T00:54:50.385Z,13.39
2022-10-16T00:55:50.399Z,13.38
2022-10-16T00:56:50.396Z,13.39
2022-10-16T00:57:50.373Z,13.57
2022-10-16T00:58:50.336Z,13.59
2022-10-16T00:59:50.335Z,13.68
2022-10-16T01:00:50.415Z,13.62
2022-10-16T01:01:50.325Z,13.68
2022-10-16T01:02:50.343Z,13.57
2022-10-16T01:03:50.306Z,13.67
2022-10-16T01:04:50.294Z,13.60
2022-10-16T01:05:50.308Z,13.59
2022-10-16T01:06:50.338Z,13.52
2022-10-16T01:07:50.258Z,13.63
2022-10-16T01:08:50.289Z,13.54
2022-10-16T01:09:50.249Z,13.57
2022-10-16T01:10:50.261Z,13.59
2022-10-16T01:11:50.269Z,13.47
2022-10-16T01:12:50.244Z,13.53
2022-10-16T01:13:50.222Z,13.50
2022-10-16T01:14:50.209Z,13.47
2022-10-16T01:15:50.216Z,13.57
2022-10-16T01:16:50.194Z,13.60
2022-10-16T01:17:50.202Z,13.57
2022-10-16T01:18:50.221Z,13.65
2022-10-16T01:19:50.189Z,13.60
2022-10-16T01:20:50.154Z,13.52
2022-10-16T01:21:50.161Z,13.53
2022-10-16T01:22:50.194Z,13.59
2022-10-16T01:23:50.192Z,13.65
2022-10-16T01:24:50.176Z,13.53
2022-10-16T01:25:50.137Z,13.62
2022-10-16T01:26:50.160Z,13.54
2022-10-16T01:27:50.084Z,13.60
2022-10-16T01:28:50.178Z,13.62
2022-10-16T01:29:50.115Z,13.59
2022-10-16T01:30:50.088Z,13.53
2022-10-16T01:31:50.116Z,13.53
2022-10-16T01:32:50.125Z,13.57
2022-10-16T01:33:50.158Z,13.63
2022-10-16T01:34:50.085Z,13.63
2022-10-16T01:35:51.059Z,13.67
2022-10-16T01:36:50.046Z,13.62
2022-10-16T01:37:50.054Z,13.60
2022-10-16T01:38:50.045Z,13.47
2022-10-16T01:39:50.053Z,13.47
2022-10-16T01:40:50.056Z,13.42
2022-10-16T01:41:50.040Z,13.41
2022-10-16T01:42:50.112Z,13.39
2022-10-16T01:43:50.036Z,13.38
2022-10-16T01:44:50.028Z,13.30
2022-10-16T02:23:23.172Z,13.30
2022-10-16T02:24:24.280Z,13.30
2022-10-16T02:25:24.270Z,13.38
2022-10-16T02:26:24.276Z,13.33
2022-10-16T02:27:24.266Z,13.31
2022-10-16T02:28:25.243Z,13.47
2022-10-16T02:29:24.262Z,13.50
2022-10-16T02:30:24.272Z,13.57
2022-10-16T02:31:24.266Z,13.52
2022-10-16T02:32:24.540Z,13.53
2022-10-16T02:33:24.231Z,13.60
2022-10-16T02:34:24.236Z,13.52
2022-10-16T02:35:24.262Z,13.56
2022-10-16T02:36:24.198Z,13.53
2022-10-16T02:37:24.185Z,13.54
2022-10-16T02:38:24.178Z,13.52
2022-10-16T02:39:24.205Z,13.49
2022-10-16T02:40:25.573Z,13.47
2022-10-16T02:41:57.606Z,13.38
2022-10-16T02:42:58.133Z,13.39
2022-10-16T02:43:56.647Z,13.38
2022-10-16T02:44:24.259Z,13.44
2022-10-16T02:45:58.174Z,13.33
2022-10-16T02:46:24.112Z,13.31
2022-10-16T02:47:24.094Z,13.42
2022-10-16T02:48:24.126Z,13.33
2022-10-16T02:49:24.097Z,13.44
2022-10-16T02:50:24.084Z,13.30
2022-10-16T02:51:24.107Z,13.46
2022-10-16T02:52:24.330Z,13.42
2022-10-16T02:53:24.086Z,13.42
2022-10-16T02:54:24.086Z,13.33
2022-10-16T02:55:24.059Z,13.37
2022-10-16T02:56:24.044Z,13.37
2022-10-16T02:57:24.517Z,13.23
2022-10-16T02:58:24.043Z,13.41
2022-10-16T02:59:24.066Z,13.37
2022-10-16T03:00:24.033Z,13.41
2022-10-16T03:01:24.084Z,13.30
2022-10-16T03:02:24.016Z,13.39
2022-10-16T03:03:24.042Z,13.33
2022-10-16T03:04:24.032Z,13.28
2022-10-16T03:05:23.989Z,13.23
2022-10-16T03:06:23.990Z,13.31
2022-10-16T03:07:24.399Z,13.30
2022-10-16T03:08:23.955Z,13.30
2022-10-16T03:09:23.956Z,13.30
2022-10-16T03:10:23.957Z,13.28
2022-10-16T03:11:23.956Z,13.33
2022-10-16T03:12:23.904Z,13.23
2022-10-16T03:13:23.893Z,13.33
2022-10-16T03:14:23.949Z,13.33
2022-10-16T03:15:23.927Z,13.30
2022-10-16T03:16:23.908Z,13.28
2022-10-16T03:17:24.143Z,13.37
2022-10-16T03:18:23.880Z,13.37
2022-10-16T03:19:23.851Z,13.20
2022-10-16T03:20:23.871Z,13.19
2022-10-16T03:21:24.895Z,13.15
2022-10-16T03:22:23.855Z,13.20
2022-10-16T03:23:23.899Z,13.19
2022-10-16T03:24:23.812Z,13.18
2022-10-16T03:25:23.819Z,13.16
2022-10-16T03:26:23.804Z,13.19
2022-10-16T03:27:24.207Z,13.23
2022-10-16T03:28:23.857Z,13.18
2022-10-16T03:29:23.805Z,13.16
2022-10-16T03:30:23.769Z,13.11
2022-10-16T03:31:23.756Z,13.19
2022-10-16T03:32:23.835Z,13.12
2022-10-16T03:33:23.748Z,13.16
2022-10-16T03:34:23.779Z,13.13
2022-10-16T03:35:23.783Z,13.18
2022-10-16T03:36:23.718Z,13.15
2022-10-16T03:37:24.150Z,13.22
2022-10-16T03:38:23.732Z,13.27
2022-10-16T03:39:23.725Z,13.25
2022-10-16T03:40:23.745Z,13.22
2022-10-16T03:41:23.688Z,13.19
2022-10-16T03:42:23.674Z,13.23
2022-10-16T03:43:23.695Z,13.16
2022-10-16T03:44:23.671Z,13.19
2022-10-16T03:45:23.689Z,13.11
2022-10-16T03:46:24.276Z,13.16
2022-10-16T04:02:41.649Z,13.03
2022-10-16T04:03:41.581Z,13.08
2022-10-16T04:04:42.688Z,13.03
2022-10-16T04:05:42.731Z,13.11
2022-10-16T04:06:42.720Z,13.18
2022-10-16T04:07:42.717Z,13.27
2022-10-16T04:08:42.717Z,13.28
2022-10-16T04:09:42.712Z,13.18
2022-10-16T04:10:42.678Z,13.31
2022-10-16T04:11:42.676Z,13.28
2022-10-16T04:12:42.708Z,13.33
2022-10-16T04:13:43.384Z,13.41
2022-10-16T04:14:42.623Z,13.19
2022-10-16T04:15:42.627Z,13.28
2022-10-16T04:16:42.666Z,13.33
2022-10-16T04:17:42.649Z,13.37
2022-10-16T04:18:42.645Z,13.30
2022-10-16T04:19:42.627Z,13.28
2022-10-16T04:20:42.612Z,13.37
2022-10-16T04:21:42.575Z,13.39
2022-10-16T04:22:43.334Z,13.41
2022-10-16T04:23:42.629Z,13.42
2022-10-16T04:24:42.583Z,13.39
2022-10-16T04:25:42.587Z,13.42
2022-10-16T04:26:42.574Z,13.37
2022-10-16T04:27:45.978Z,13.41
2022-10-16T04:28:43.573Z,13.42
2022-10-16T04:29:42.552Z,13.42
2022-10-16T04:30:42.575Z,13.46
2022-10-16T04:31:43.374Z,13.47
2022-10-16T04:32:42.529Z,13.47
2022-10-16T04:33:42.550Z,13.50
2022-10-16T04:34:43.336Z,13.41
2022-10-16T04:35:42.521Z,13.52
2022-10-16T04:36:42.536Z,13.50
2022-10-16T04:37:42.491Z,13.54
2022-10-16T04:38:42.487Z,13.42
2022-10-16T04:39:42.463Z,13.47
2022-10-16T04:40:42.751Z,13.49
2022-10-16T04:41:42.430Z,13.50
2022-10-16T04:42:42.474Z,13.57
2022-10-16T04:43:42.435Z,13.53
2022-10-16T04:44:42.482Z,13.52
2022-10-16T04:45:42.439Z,13.52
2022-10-16T04:46:42.420Z,13.50
2022-10-16T04:47:42.405Z,13.52
2022-10-16T04:48:42.381Z,13.57
2022-10-16T04:49:42.406Z,13.72
2022-10-16T04:50:42.369Z,13.65
2022-10-16T04:51:42.461Z,13.50
2022-10-16T04:52:42.388Z,13.68
2022-10-16T04:53:42.409Z,13.59
2022-10-16T04:54:42.326Z,13.62
2022-10-16T04:55:42.378Z,13.62
2022-10-16T04:56:42.371Z,13.72
2022-10-16T04:57:42.329Z,13.67
2022-10-16T04:58:42.357Z,13.62
2022-10-16T04:59:42.318Z,13.63
2022-10-16T05:00:42.300Z,13.72
2022-10-16T05:01:42.306Z,13.62
2022-10-16T05:02:42.349Z,13.65
2022-10-16T05:03:42.324Z,13.62
2022-10-16T05:04:42.247Z,13.68
2022-10-16T05:05:42.256Z,13.65
2022-10-16T05:06:42.289Z,13.71
2022-10-16T05:07:42.235Z,13.74
2022-10-16T05:08:42.250Z,13.71
2022-10-16T05:09:42.324Z,13.70
2022-10-16T05:10:42.222Z,13.72
2022-10-16T05:11:42.214Z,13.71
2022-10-16T05:12:42.224Z,13.65
2022-10-16T05:13:42.208Z,13.68
2022-10-16T05:14:42.195Z,13.65
2022-10-16T05:15:42.196Z,13.68
2022-10-16T05:16:42.157Z,13.65
2022-10-16T05:17:44.654Z,13.60
2022-10-16T05:18:42.162Z,13.65
2022-10-16T05:19:42.158Z,13.67
2022-10-16T05:20:42.144Z,13.59
2022-10-16T05:21:42.145Z,13.68
2022-10-16T05:22:42.137Z,13.68
2022-10-16T05:23:42.146Z,13.65
2022-10-16T05:24:42.129Z,13.72
2022-10-16T05:25:42.128Z,13.78
2022-10-16T05:26:42.109Z,13.77
2022-10-16T05:27:42.102Z,13.72
2022-10-16T05:28:42.113Z,13.74
2022-10-16T05:29:42.118Z,13.78
2022-10-16T05:30:42.063Z,13.74
2022-10-16T05:31:42.085Z,13.83
2022-10-16T05:32:42.823Z,13.77
2022-10-16T05:33:42.094Z,13.77
2022-10-16T05:34:42.061Z,13.78
2022-10-16T05:35:42.017Z,13.81
2022-10-16T05:36:42.955Z,13.75
2022-10-16T05:37:42.066Z,13.71
2022-10-16T05:38:41.994Z,13.74
2022-10-16T05:39:43.010Z,13.71
2022-10-16T05:40:41.971Z,13.78
2022-10-16T05:41:41.996Z,13.67
2022-10-16T05:42:42.022Z,13.63
2022-10-16T05:43:41.971Z,13.68
2022-10-16T05:44:41.968Z,13.68
2022-10-16T05:45:42.909Z,13.75
2022-10-16T05:46:41.942Z,13.67
2022-10-16T05:47:41.950Z,13.63
2022-10-16T05:48:41.943Z,13.74
2022-10-16T05:49:41.926Z,13.68
2022-10-16T05:50:41.936Z,13.72
2022-10-16T05:51:41.925Z,13.78
2022-10-16T05:52:41.897Z,13.81
2022-10-16T05:53:41.893Z,13.83
2022-10-16T05:54:41.890Z,13.71
2022-10-16T05:55:41.881Z,13.83
2022-10-16T05:56:41.884Z,13.85
2022-10-16T05:57:41.845Z,13.77
2022-10-16T05:58:41.832Z,13.81
2022-10-16T05:59:41.874Z,13.87
2022-10-16T06:00:41.822Z,13.81
2022-10-16T06:01:41.877Z,13.90
2022-10-16T06:02:41.802Z,13.87
2022-10-16T06:04:15.775Z,13.87
2022-10-16T06:04:41.772Z,13.89
2022-10-16T06:05:41.784Z,13.96
2022-10-16T06:06:41.834Z,14.05
2022-10-16T06:07:41.774Z,14.05
2022-10-16T06:08:41.760Z,14.11
2022-10-16T06:09:41.753Z,14.07
2022-10-16T06:10:41.725Z,14.08
2022-10-16T06:11:41.766Z,14.14
2022-10-16T06:12:41.738Z,14.07
2022-10-16T06:13:41.721Z,14.11
2022-10-16T06:14:41.736Z,14.10
2022-10-16T06:15:41.719Z,14.14
2022-10-16T06:16:41.717Z,14.10
2022-10-16T06:17:41.761Z,14.17
2022-10-16T06:18:41.692Z,14.10
2022-10-16T06:19:41.673Z,14.14
2022-10-16T06:20:41.701Z,14.05
2022-10-16T06:21:41.702Z,14.17
2022-10-16T06:22:41.672Z,14.12
2022-10-16T06:23:41.714Z,14.22
2022-10-16T06:24:41.656Z,14.22
2022-10-16T06:25:41.618Z,14.18
2022-10-16T06:26:41.649Z,14.17
2022-10-16T06:27:41.630Z,14.17
2022-10-16T06:28:41.697Z,14.18
2022-10-16T06:29:41.591Z,14.23
2022-10-16T06:30:41.622Z,14.26
2022-10-16T06:31:41.578Z,14.28
2022-10-16T06:32:41.582Z,14.25
2022-10-16T06:33:41.653Z,14.14
2022-10-16T06:34:43.371Z,14.28
2022-10-16T06:35:41.546Z,14.26
2022-10-16T06:36:41.549Z,14.23
2022-10-16T06:37:41.561Z,14.25
2022-10-16T06:38:41.540Z,14.32
2022-10-16T06:39:41.560Z,14.30
2022-10-16T06:40:41.504Z,14.26
2022-10-16T06:41:41.486Z,14.26
2022-10-16T06:42:41.484Z,14.23
2022-10-16T06:43:41.505Z,14.29
2022-10-16T06:44:41.492Z,14.25
2022-10-16T06:45:41.479Z,14.22
2022-10-16T06:46:41.464Z,14.30
2022-10-16T06:47:41.499Z,14.36
2022-10-16T06:48:41.466Z,14.78
2022-10-16T06:49:41.485Z,14.99
2022-10-16T06:50:41.424Z,15.10
2022-10-16T06:51:43.133Z,15.00
2022-10-16T06:52:41.430Z,14.78
2022-10-16T06:54:01.230Z,14.84
2022-10-16T06:54:43.454Z,14.58
2022-10-16T06:55:41.446Z,14.65
2022-10-16T06:56:41.394Z,14.72
2022-10-16T06:57:41.397Z,14.65
2022-10-16T06:58:41.367Z,14.59
2022-10-16T06:59:45.126Z,14.62
2022-10-16T07:00:42.371Z,14.65
2022-10-16T07:01:41.406Z,14.54
2022-10-16T07:02:41.352Z,14.51
2022-10-16T07:03:41.348Z,14.59
2022-10-16T07:04:41.355Z,14.55
2022-10-16T07:05:41.332Z,14.53
2022-10-16T07:06:41.346Z,14.66
2022-10-16T07:07:41.306Z,14.63
2022-10-16T07:08:41.293Z,14.60
2022-10-16T07:09:41.276Z,14.68
2022-10-16T07:10:41.264Z,14.63
2022-10-16T07:11:41.284Z,14.72
2022-10-16T07:12:41.259Z,14.68
2022-10-16T07:13:42.291Z,14.70
2022-10-16T07:14:41.270Z,14.70
2022-10-16T07:15:41.257Z,14.73
2022-10-16T07:16:41.245Z,14.79
2022-10-16T07:17:41.240Z,14.82
2022-10-16T07:18:41.243Z,14.86
2022-10-16T07:19:41.202Z,14.89
2022-10-16T07:20:42.205Z,14.78
2022-10-16T07:21:41.213Z,14.84
2022-10-16T07:22:41.241Z,14.86
2022-10-16T07:23:41.187Z,14.99
2022-10-16T07:24:41.190Z,14.94
2022-10-16T07:25:41.191Z,14.89
2022-10-16T07:26:41.238Z,14.96
2022-10-16T07:27:41.185Z,15.06
2022-10-16T07:28:41.177Z,15.17
2022-10-16T07:29:41.172Z,15.21
2022-10-16T07:30:41.777Z,15.17
2022-10-16T07:31:41.120Z,15.09
2022-10-16T07:32:41.231Z,15.07
2022-10-16T07:33:41.113Z,15.11
2022-10-16T07:34:41.130Z,15.11
2022-10-16T07:35:41.101Z,15.18
2022-10-16T07:37:41.071Z,15.18
2022-10-16T07:38:41.080Z,15.17
2022-10-16T07:39:41.089Z,15.25
2022-10-16T07:40:41.062Z,15.22
2022-10-16T07:41:41.011Z,15.17
2022-10-16T07:42:41.019Z,15.22
2022-10-16T07:43:42.287Z,15.18
2022-10-16T07:44:41.080Z,15.17
2022-10-16T07:45:41.007Z,15.17
2022-10-16T07:46:41.013Z,15.19
2022-10-16T07:47:40.967Z,15.17
2022-10-16T07:48:40.989Z,15.24
2022-10-16T07:49:40.989Z,15.17
2022-10-16T07:50:40.984Z,15.19
2022-10-16T07:51:41.005Z,15.28
2022-10-16T07:52:40.986Z,15.22
2022-10-16T07:53:41.829Z,15.25
2022-10-16T07:54:41.088Z,15.24
2022-10-16T07:55:40.941Z,15.21
2022-10-16T07:56:43.737Z,15.18
2022-10-16T07:57:40.958Z,15.24
2022-10-16T07:58:40.901Z,15.25
2022-10-16T07:59:40.917Z,15.19
2022-10-16T08:00:40.903Z,15.36
2022-10-16T08:01:40.978Z,15.27
2022-10-16T08:02:40.864Z,15.21
2022-10-16T08:03:40.876Z,15.22
2022-10-16T08:04:40.878Z,15.21
2022-10-16T08:05:40.893Z,15.35
2022-10-16T08:06:40.851Z,15.27
2022-10-16T08:07:40.881Z,15.36
2022-10-16T08:08:40.876Z,15.24
2022-10-16T08:09:40.836Z,15.33
2022-10-16T08:10:40.825Z,15.29
2022-10-16T08:11:40.830Z,15.28
2022-10-16T08:12:40.837Z,15.28
2022-10-16T08:13:40.829Z,15.29
2022-10-16T08:14:43.302Z,15.31
2022-10-16T08:15:40.803Z,15.42
2022-10-16T08:16:40.764Z,15.42
2022-10-16T08:17:40.803Z,15.40
2022-10-16T08:18:40.767Z,15.35
2022-10-16T08:19:40.770Z,15.40
2022-10-16T08:20:40.764Z,15.31
2022-10-16T08:21:40.751Z,15.44
2022-10-16T08:22:40.785Z,15.43
2022-10-16T08:23:40.746Z,15.46
2022-10-16T08:24:40.774Z,15.64
2022-10-16T08:25:40.697Z,15.62
2022-10-16T13:02:11.650Z,21.83
2022-10-16T13:03:12.650Z,21.92
2022-10-16T13:04:17.669Z,22.14
2022-10-16T13:05:13.467Z,22.20
2022-10-16T13:06:13.421Z,22.04
2022-10-16T13:30:25.749Z,20.93
2022-10-16T13:31:16.574Z,20.87
2022-10-16T13:40:32.340Z,20.36
2022-10-16T13:57:03.061Z,20.25
2022-10-16T14:05:28.632Z,20.22
2022-10-16T14:26:48.181Z,20.26
2022-10-16T14:27:36.663Z,20.28
2022-10-16T14:28:36.577Z,20.32
2022-10-16T14:29:36.872Z,20.32
2022-10-16T14:30:36.828Z,20.32
2022-10-16T14:31:36.783Z,20.48
2022-10-16T14:32:37.730Z,20.63
2022-10-16T14:33:37.652Z,20.60
2022-10-16T14:34:36.807Z,20.67
2022-10-16T14:35:36.746Z,20.78
2022-10-16T14:36:36.759Z,20.77
2022-10-16T14:37:36.773Z,20.67
2022-10-16T14:38:36.839Z,20.62
2022-10-16T14:39:37.811Z,20.47
2022-10-16T14:40:36.753Z,20.37
2022-10-16T14:41:37.366Z,20.37
2022-10-16T14:42:36.762Z,20.26
2022-10-16T14:43:36.857Z,20.31
2022-10-16T14:44:36.818Z,20.41
2022-10-16T14:45:36.886Z,20.47
2022-10-16T14:46:36.657Z,20.31
2022-10-16T14:47:36.805Z,20.39
2022-10-16T14:48:36.699Z,20.39
2022-10-16T14:49:36.747Z,20.34
2022-10-16T14:50:36.710Z,20.31
2022-10-16T14:51:36.626Z,20.32
2022-10-16T14:52:36.643Z,20.31
2022-10-16T14:53:36.609Z,20.26
2022-10-16T14:54:36.642Z,20.41
2022-10-16T14:55:38.175Z,20.44
2022-10-16T14:56:36.659Z,20.34
2022-10-16T14:57:36.607Z,20.29
2022-10-16T14:58:36.617Z,20.37
2022-10-16T14:59:36.579Z,20.25
2022-10-16T15:00:36.628Z,20.34
2022-10-16T15:01:36.568Z,20.32
2022-10-16T15:02:36.573Z,20.26
2022-10-16T15:03:36.572Z,20.25
2022-10-16T15:04:36.854Z,20.22
2022-10-16T15:05:39.759Z,20.22
2022-10-16T15:06:36.546Z,20.25
2022-10-16T15:07:36.558Z,20.32
2022-10-16T15:08:36.557Z,20.31
2022-10-16T15:09:36.735Z,20.21
2022-10-16T15:10:36.480Z,20.26
2022-10-16T15:11:36.509Z,20.25
2022-10-16T15:12:36.473Z,20.16
2022-10-16T15:13:36.476Z,20.21
2022-10-16T15:14:36.486Z,20.26
2022-10-16T15:15:36.457Z,20.28
2022-10-16T15:16:36.427Z,20.21
2022-10-16T15:17:36.445Z,20.25
2022-10-16T15:18:36.485Z,20.19
2022-10-16T15:19:36.484Z,20.24
2022-10-16T15:20:36.426Z,20.25
2022-10-16T15:21:36.395Z,20.22
2022-10-16T15:22:36.394Z,20.10
2022-10-16T15:23:36.421Z,20.18
2022-10-16T15:24:36.401Z,20.13
2022-10-16T15:25:36.384Z,19.99
2022-10-16T15:26:36.433Z,19.99
2022-10-16T15:27:37.299Z,19.82
2022-10-16T15:28:36.498Z,19.77
2022-10-16T15:29:36.440Z,19.71
2022-10-16T15:30:36.404Z,19.63
2022-10-16T15:31:36.310Z,19.62
2022-10-16T15:32:36.426Z,19.63
2022-10-16T15:33:39.652Z,19.48
2022-10-16T15:34:36.293Z,19.55
2022-10-16T15:35:36.287Z,19.48
2022-10-16T15:36:36.353Z,19.52
2022-10-16T15:37:36.385Z,19.40
2022-10-16T15:38:38.083Z,19.40
2022-10-16T15:39:40.535Z,19.30
2022-10-16T15:40:38.265Z,19.31
2022-10-16T15:41:36.365Z,19.41
2022-10-16T15:42:36.293Z,19.37
2022-10-16T15:43:36.233Z,19.37
2022-10-16T15:44:36.847Z,19.34
2022-10-16T15:45:36.253Z,19.34
2022-10-16T15:46:36.832Z,19.27
2022-10-16T15:47:36.207Z,19.24
2022-10-16T15:48:36.283Z,19.22
2022-10-16T15:49:36.181Z,19.14
2022-10-16T15:50:36.235Z,19.16
2022-10-16T15:51:36.480Z,19.12
2022-10-16T15:52:36.223Z,19.09
2022-10-16T15:53:36.158Z,19.15
2022-10-16T15:54:36.197Z,19.14
2022-10-16T15:55:36.373Z,19.12
2022-10-16T15:56:36.165Z,18.99
2022-10-16T15:57:36.146Z,18.98
2022-10-16T15:58:36.136Z,18.92
2022-10-16T15:59:36.184Z,18.95
2022-10-16T16:00:36.178Z,19.04
2022-10-16T16:01:36.230Z,18.86
2022-10-16T16:02:36.156Z,18.86
2022-10-16T16:03:36.181Z,18.78
2022-10-16T16:04:43.863Z,18.89
2022-10-16T16:05:39.885Z,18.84
2022-10-16T16:06:36.100Z,18.74
2022-10-16T16:07:36.101Z,18.70
2022-10-16T16:08:36.114Z,18.74
2022-10-16T16:09:36.148Z,18.60
2022-10-16T16:10:36.081Z,18.66
2022-10-16T16:11:36.087Z,18.59
2022-10-16T16:12:36.461Z,18.59
2022-10-16T16:13:36.036Z,18.49
2022-10-16T16:14:36.000Z,18.53
2022-10-16T16:15:35.996Z,18.40
2022-10-16T16:16:36.029Z,18.44
2022-10-16T16:17:35.974Z,18.49
2022-10-16T16:18:35.963Z,18.47
2022-10-16T16:19:36.034Z,18.43
2022-10-16T16:20:35.998Z,18.44
2022-10-16T16:21:35.931Z,18.34
2022-10-16T16:22:35.947Z,18.28
2022-10-16T16:23:35.975Z,18.31
2022-10-16T16:24:35.951Z,18.31
2022-10-16T16:25:37.848Z,18.29
2022-10-16T16:26:35.995Z,18.20
2022-10-16T16:27:35.923Z,18.20
2022-10-16T16:28:35.986Z,18.25
2022-10-16T16:29:35.965Z,18.22
2022-10-16T16:30:35.876Z,18.11
2022-10-16T16:31:36.867Z,18.18
2022-10-16T16:32:35.871Z,18.19
2022-10-16T16:33:35.813Z,18.15
2022-10-16T16:34:35.864Z,18.08
2022-10-16T16:35:35.856Z,18.01
2022-10-16T16:36:35.842Z,18.03
2022-10-16T16:37:35.810Z,18.03
2022-10-16T16:38:35.842Z,17.97
2022-10-16T16:39:35.798Z,17.92
2022-10-16T16:40:35.882Z,17.89
2022-10-16T16:41:35.777Z,17.87
2022-10-16T16:42:35.806Z,17.85
2022-10-16T16:43:35.769Z,17.85
2022-10-16T16:44:35.765Z,17.87
2022-10-16T16:45:35.771Z,17.82
2022-10-16T16:46:35.807Z,17.78
2022-10-16T16:47:35.743Z,17.78
2022-10-16T16:48:35.745Z,17.78
2022-10-16T16:49:35.748Z,17.74
2022-10-16T16:50:35.729Z,17.82
2022-10-16T16:51:38.416Z,17.68
2022-10-16T16:52:35.772Z,17.80
2022-10-16T16:53:35.739Z,17.79
2022-10-16T16:54:35.728Z,17.67
2022-10-16T16:55:35.706Z,17.71
2022-10-16T16:56:35.647Z,17.70
2022-10-16T16:57:35.672Z,17.68
2022-10-16T16:58:35.651Z,17.65
2022-10-16T16:59:35.850Z,17.54
2022-10-16T17:01:19.551Z,17.48
2022-10-16T17:02:04.864Z,17.44
2022-10-16T17:03:09.241Z,17.49
2022-10-16T17:03:35.682Z,17.39
2022-10-16T17:04:35.623Z,17.41
2022-10-16T17:05:35.589Z,17.39
2022-10-16T17:06:35.777Z,17.27
2022-10-16T17:07:35.637Z,17.29
2022-10-16T17:08:35.607Z,17.23
2022-10-16T17:09:35.567Z,17.16
2022-10-16T17:10:35.602Z,17.11
2022-10-16T17:11:35.612Z,17.06
2022-10-16T17:12:35.600Z,17.01
2022-10-16T17:13:35.544Z,16.99
2022-10-16T17:14:35.604Z,16.94
2022-10-16T17:15:35.541Z,16.96
2022-10-16T17:16:35.536Z,16.91
2022-10-16T17:17:35.560Z,16.90
2022-10-16T17:18:35.517Z,16.79
2022-10-16T17:19:35.536Z,16.74
2022-10-16T17:20:35.507Z,16.83
2022-10-16T17:21:35.521Z,16.68
2022-10-16T17:22:35.491Z,16.61
2022-10-16T17:23:35.502Z,16.66
2022-10-16T17:24:35.456Z,16.65
2022-10-16T17:25:35.466Z,16.58
2022-10-16T17:26:35.422Z,16.66
2022-10-16T17:27:35.445Z,16.61
2022-10-16T17:28:35.488Z,16.65
2022-10-16T17:29:35.419Z,16.68
2022-10-16T17:30:35.483Z,16.61
2022-10-16T17:31:35.896Z,16.56
2022-10-16T17:32:35.389Z,16.58
2022-10-16T17:33:35.492Z,16.54
2022-10-16T17:34:35.428Z,16.47
2022-10-16T17:35:35.379Z,16.41
2022-10-16T17:36:35.434Z,16.41
2022-10-16T17:37:35.375Z,16.33
2022-10-16T17:38:35.404Z,16.31
2022-10-16T17:39:35.331Z,16.29
2022-10-16T17:40:35.319Z,16.32
2022-10-16T17:41:35.369Z,16.20
2022-10-16T17:42:35.371Z,16.15
2022-10-16T17:43:35.315Z,16.17
2022-10-16T17:44:35.355Z,16.10
2022-10-16T17:45:35.278Z,16.17
2022-10-16T17:46:38.401Z,16.09
2022-10-16T17:47:36.310Z,15.94
2022-10-16T17:48:35.292Z,16.00
2022-10-16T17:49:35.294Z,15.97
2022-10-16T17:50:35.304Z,16.01
2022-10-16T17:51:35.253Z,16.01
2022-10-16T17:52:35.250Z,16.08
2022-10-16T17:53:35.262Z,15.97
2022-10-16T17:54:35.247Z,16.04
2022-10-16T17:55:35.240Z,16.09
2022-10-16T17:56:35.223Z,15.98
2022-10-16T17:57:35.224Z,15.95
2022-10-16T17:58:35.217Z,15.97
2022-10-16T17:59:35.165Z,15.90
2022-10-16T18:00:35.173Z,15.84
2022-10-16T18:01:35.228Z,15.79
2022-10-16T18:02:35.890Z,15.73
2022-10-16T18:03:35.197Z,15.68
2022-10-16T18:04:35.140Z,15.75
2022-10-16T18:05:35.144Z,15.73
2022-10-16T18:06:35.206Z,15.59
2022-10-16T18:07:35.151Z,15.55
2022-10-16T18:08:35.088Z,15.55
2022-10-16T18:09:35.094Z,15.39
2022-10-16T18:10:35.096Z,15.39
2022-10-16T18:11:35.105Z,15.51
2022-10-16T18:12:35.143Z,15.46
2022-10-16T18:13:35.091Z,15.36
2022-10-16T18:14:35.016Z,15.39
2022-10-16T18:15:35.069Z,15.28
2022-10-16T18:16:35.050Z,15.33
2022-10-16T18:17:35.040Z,15.29
2022-10-16T18:18:35.023Z,15.39
2022-10-16T18:19:35.029Z,15.35
2022-10-16T18:20:35.046Z,15.37
2022-10-16T18:21:35.016Z,15.31
2022-10-16T18:23:07.359Z,15.25
2022-10-16T18:23:34.946Z,15.35
2022-10-16T18:24:34.979Z,15.35
2022-10-16T18:25:34.939Z,15.37
2022-10-16T18:26:34.970Z,15.39
2022-10-16T18:27:34.956Z,15.27
2022-10-16T18:28:35.044Z,15.36
2022-10-16T18:29:34.972Z,15.31
2022-10-16T18:30:34.923Z,15.35
2022-10-16T18:31:39.085Z,15.24
2022-10-16T18:32:36.991Z,15.33
2022-10-16T18:33:34.945Z,15.33
2022-10-16T18:34:34.946Z,15.42
2022-10-16T18:35:34.937Z,15.39
2022-10-16T18:36:34.887Z,15.40
2022-10-16T18:37:35.909Z,15.36
2022-10-16T18:38:35.841Z,15.42
2022-10-16T18:39:34.902Z,15.42
2022-10-16T18:40:34.819Z,15.43
2022-10-16T18:41:34.855Z,15.51
2022-10-16T18:42:34.920Z,15.51
2022-10-16T18:43:34.817Z,15.47
2022-10-16T18:44:34.799Z,15.51
2022-10-16T18:45:34.795Z,15.55
2022-10-16T18:46:34.792Z,15.54
2022-10-16T18:47:34.818Z,15.47
2022-10-16T18:48:34.780Z,15.44
2022-10-16T18:49:34.806Z,15.52
2022-10-16T18:50:34.850Z,15.57
2022-10-16T18:51:34.764Z,15.46
2022-10-16T18:52:34.834Z,15.54
2022-10-16T18:53:34.755Z,15.37
2022-10-16T18:54:34.740Z,15.37
2022-10-16T18:55:34.704Z,15.37
2022-10-16T18:56:34.744Z,15.42
2022-10-16T18:57:34.793Z,15.37
2022-10-16T18:58:34.730Z,15.33
2022-10-16T18:59:34.764Z,15.31
2022-10-16T19:00:34.710Z,15.33
2022-10-16T19:01:36.342Z,15.37
2022-10-16T19:03:34.709Z,15.37
2022-10-16T19:04:35.432Z,15.28
2022-10-16T19:05:34.714Z,15.24
2022-10-16T19:06:35.421Z,15.29
2022-10-16T19:07:34.827Z,15.29
2022-10-16T19:08:35.396Z,15.21
2022-10-16T19:09:34.661Z,15.25
2022-10-16T19:10:34.627Z,15.21
2022-10-16T19:11:38.040Z,15.22
2022-10-16T19:12:36.640Z,15.25
2022-10-16T19:13:34.618Z,15.11
2022-10-16T19:16:32.674Z,15.02
2022-10-16T19:17:32.728Z,14.96
2022-10-16T19:18:33.997Z,15.02
2022-10-16T19:19:33.853Z,14.96
2022-10-16T19:20:33.906Z,15.00
2022-10-16T19:21:33.784Z,14.96
2022-10-16T19:22:34.573Z,15.04
2022-10-16T19:23:33.830Z,14.99
2022-10-16T19:24:33.807Z,14.99
2022-10-16T19:25:33.827Z,14.94
2022-10-16T19:26:35.756Z,15.00
2022-10-16T19:27:34.754Z,15.00
2022-10-16T19:28:33.882Z,14.94
2022-10-16T19:29:33.734Z,14.94
2022-10-16T19:30:33.798Z,15.02
2022-10-16T19:31:33.717Z,15.00
2022-10-16T19:32:33.714Z,15.02
2022-10-16T19:33:33.722Z,15.03
2022-10-16T19:34:33.688Z,15.10
2022-10-16T19:35:33.764Z,15.06
2022-10-16T19:36:33.678Z,15.06
2022-10-16T19:37:33.696Z,15.03
2022-10-16T19:38:33.707Z,15.11
2022-10-16T19:39:33.664Z,15.06